createdAt,value
2017-08-21T00:00:15.927Z,14.60
2017-08-21T00:01:22.116Z,14.68
2017-08-21T00:02:27.947Z,14.68
2017-08-21T00:03:34.036Z,14.57
2017-08-21T00:04:39.923Z,14.57
2017-08-21T00:05:45.953Z,14.57
2017-08-21T00:06:52.014Z,14.53
2017-08-21T00:07:58.110Z,14.49
2017-08-21T00:09:03.415Z,14.48
2017-08-21T00:10:09.529Z,14.61
2017-08-21T00:11:15.383Z,14.65
2017-08-21T00:12:21.462Z,14.57
2017-08-21T00:13:28.216Z,14.65
2017-08-21T00:14:34.251Z,14.66
2017-08-21T00:15:40.342Z,14.59
2017-08-21T00:16:46.394Z,14.58
2017-08-21T00:17:52.417Z,14.62
2017-08-21T00:18:58.430Z,14.53
2017-08-21T00:20:04.451Z,14.47
2017-08-21T00:21:10.347Z,14.48
2017-08-21T00:22:16.405Z,14.55
2017-08-21T00:23:22.449Z,14.46
2017-08-21T00:24:28.490Z,14.29
2017-08-21T00:25:34.556Z,14.32
2017-08-21T00:26:40.618Z,14.38
2017-08-21T00:27:46.661Z,14.35
2017-08-21T00:28:53.580Z,14.37
2017-08-21T00:29:59.642Z,14.35
2017-08-21T00:31:05.335Z,14.25
2017-08-21T00:32:11.224Z,14.19
2017-08-21T00:33:17.312Z,14.06
2017-08-21T00:34:23.399Z,14.06
2017-08-21T00:35:29.477Z,14.01
2017-08-21T00:36:35.599Z,13.93
2017-08-21T00:37:41.660Z,14.03
2017-08-21T00:38:47.696Z,14.03
2017-08-21T00:39:53.761Z,14.01
2017-08-21T00:40:59.806Z,13.96
2017-08-21T00:42:05.869Z,13.96
2017-08-21T00:43:11.930Z,13.92
2017-08-21T00:44:17.944Z,13.99
2017-08-21T00:45:23.971Z,13.92
2017-08-21T00:46:30.009Z,13.93
2017-08-21T00:47:36.111Z,13.91
2017-08-21T00:48:41.607Z,13.82
2017-08-21T00:49:46.954Z,13.71
2017-08-21T00:50:52.612Z,13.72
2017-08-21T00:51:58.691Z,13.84
2017-08-21T00:53:04.745Z,13.82
2017-08-21T00:54:10.833Z,13.75
2017-08-21T00:55:16.857Z,13.81
2017-08-21T00:56:22.738Z,13.81
2017-08-21T00:57:28.840Z,13.76
2017-08-21T00:58:34.890Z,13.81
2017-08-21T00:59:40.940Z,13.74
2017-08-21T01:00:47.016Z,13.71
2017-08-21T01:01:52.871Z,13.60
2017-08-21T01:02:58.933Z,13.65
2017-08-21T01:04:04.654Z,13.67
2017-08-21T01:05:10.418Z,13.64
2017-08-21T01:06:16.466Z,13.62
2017-08-21T01:07:22.484Z,13.48
2017-08-21T01:08:28.547Z,13.56
2017-08-21T01:09:34.611Z,13.47
2017-08-21T01:10:40.714Z,13.50
2017-08-21T01:11:46.769Z,13.52
2017-08-21T01:12:52.890Z,13.55
2017-08-21T01:13:58.943Z,13.58
2017-08-21T01:15:04.775Z,13.53
2017-08-21T01:16:10.866Z,13.57
2017-08-21T01:17:16.940Z,13.65
2017-08-21T01:18:23.053Z,13.60
2017-08-21T01:19:29.109Z,13.59
2017-08-21T01:20:34.787Z,13.54
2017-08-21T01:21:40.533Z,13.54
2017-08-21T01:22:46.556Z,13.48
2017-08-21T01:23:52.639Z,13.42
2017-08-21T01:24:58.674Z,13.40
2017-08-21T01:26:04.752Z,13.48
2017-08-21T01:27:10.844Z,13.47
2017-08-21T01:28:16.909Z,13.35
2017-08-21T01:29:22.977Z,13.27
2017-08-21T01:30:28.828Z,13.31
2017-08-21T01:31:35.706Z,13.27
2017-08-21T01:32:47.727Z,13.27
2017-08-21T01:33:53.778Z,13.39
2017-08-21T01:34:59.808Z,13.32
2017-08-21T01:36:05.824Z,13.32
2017-08-21T01:37:11.890Z,13.35
2017-08-21T01:38:17.946Z,13.18
2017-08-21T01:39:24.046Z,13.19
2017-08-21T01:40:30.085Z,13.17
2017-08-21T01:41:36.137Z,13.23
2017-08-21T01:42:42.261Z,13.17
2017-08-21T01:43:48.342Z,12.95
2017-08-21T01:44:54.388Z,13.00
2017-08-21T01:46:00.407Z,13.01
2017-08-21T01:47:06.454Z,13.06
2017-08-21T01:48:12.541Z,12.99
2017-08-21T01:49:18.593Z,12.90
2017-08-21T01:50:24.643Z,12.78
2017-08-21T01:51:30.665Z,12.77
2017-08-21T01:52:40.158Z,12.71
2017-08-21T01:53:46.225Z,12.68
2017-08-21T01:54:52.282Z,12.69
2017-08-21T01:55:58.350Z,12.74
2017-08-21T01:57:03.998Z,12.77
2017-08-21T01:58:10.037Z,12.89
2017-08-21T01:59:15.921Z,12.87
2017-08-21T02:00:21.991Z,12.83
2017-08-21T02:01:27.853Z,12.85
2017-08-21T02:02:33.704Z,12.88
2017-08-21T02:03:39.774Z,12.79
2017-08-21T02:04:45.637Z,12.88
2017-08-21T02:05:51.677Z,12.91
2017-08-21T02:06:57.810Z,12.93
2017-08-21T02:08:03.842Z,12.95
2017-08-21T02:09:09.931Z,12.87
2017-08-21T02:10:15.898Z,12.94
2017-08-21T02:11:21.931Z,12.94
2017-08-21T02:12:27.990Z,13.07
2017-08-21T02:13:35.031Z,12.98
2017-08-21T02:14:41.057Z,12.92
2017-08-21T02:15:47.146Z,12.91
2017-08-21T02:16:53.169Z,12.90
2017-08-21T02:17:59.186Z,12.87
2017-08-21T02:19:05.274Z,12.94
2017-08-21T02:20:11.303Z,12.87
2017-08-21T02:21:17.366Z,12.87
2017-08-21T02:22:23.392Z,12.90
2017-08-21T02:23:29.398Z,12.89
2017-08-21T02:24:35.425Z,12.85
2017-08-21T02:25:41.493Z,12.92
2017-08-21T02:26:47.566Z,12.97
2017-08-21T02:27:53.581Z,13.00
2017-08-21T02:28:59.632Z,12.87
2017-08-21T02:30:05.701Z,12.79
2017-08-21T02:31:11.710Z,12.78
2017-08-21T02:32:17.780Z,12.85
2017-08-21T02:33:23.833Z,12.94
2017-08-21T02:34:29.880Z,12.93
2017-08-21T02:35:35.907Z,12.92
2017-08-21T02:36:41.937Z,12.74
2017-08-21T02:37:48.046Z,12.69
2017-08-21T02:38:53.881Z,12.72
2017-08-21T02:39:59.919Z,12.72
2017-08-21T02:41:05.957Z,12.72
2017-08-21T02:42:11.992Z,12.73
2017-08-21T02:43:18.089Z,12.70
2017-08-21T02:44:24.132Z,12.79
2017-08-21T02:45:30.171Z,12.75
2017-08-21T02:46:36.205Z,12.79
2017-08-21T02:47:42.263Z,12.81
2017-08-21T02:48:48.354Z,12.90
2017-08-21T02:49:54.408Z,12.95
2017-08-21T02:51:00.427Z,12.93
2017-08-21T02:52:06.508Z,12.96
2017-08-21T02:53:12.526Z,12.91
2017-08-21T02:54:18.581Z,12.83
2017-08-21T02:55:25.506Z,12.82
2017-08-21T02:56:31.540Z,12.78
2017-08-21T02:57:37.551Z,12.80
2017-08-21T02:58:43.588Z,12.82
2017-08-21T02:59:49.668Z,12.87
2017-08-21T03:00:55.752Z,12.87
2017-08-21T03:02:01.585Z,12.77
2017-08-21T03:03:07.725Z,12.70
2017-08-21T03:04:13.773Z,12.73
2017-08-21T03:05:19.893Z,12.65
2017-08-21T03:06:27.248Z,12.71
2017-08-21T03:07:34.372Z,12.64
2017-08-21T03:08:40.922Z,12.52
2017-08-21T03:09:46.982Z,12.54
2017-08-21T03:10:53.085Z,12.56
2017-08-21T03:11:59.128Z,12.66
2017-08-21T03:13:04.995Z,12.59
2017-08-21T03:14:11.052Z,12.56
2017-08-21T03:15:17.093Z,12.63
2017-08-21T03:16:23.137Z,12.58
2017-08-21T03:17:29.162Z,12.50
2017-08-21T03:18:35.199Z,12.42
2017-08-21T03:19:41.385Z,12.37
2017-08-21T03:20:47.439Z,12.41
2017-08-21T03:21:53.481Z,12.41
2017-08-21T03:22:59.536Z,12.41
2017-08-21T03:24:05.622Z,12.52
2017-08-21T03:25:17.757Z,12.49
2017-08-21T03:26:27.902Z,12.40
2017-08-21T03:27:33.993Z,12.40
2017-08-21T03:28:40.050Z,12.40
2017-08-21T03:29:46.083Z,12.48
2017-08-21T03:30:52.109Z,12.43
2017-08-21T03:31:58.163Z,12.37
2017-08-21T03:33:04.240Z,12.30
2017-08-21T03:34:10.297Z,12.36
2017-08-21T03:35:16.002Z,12.32
2017-08-21T03:36:25.551Z,12.32
2017-08-21T03:37:31.549Z,12.27
2017-08-21T03:38:37.646Z,12.35
2017-08-21T03:39:43.709Z,12.40
2017-08-21T03:40:49.756Z,12.43
2017-08-21T03:41:55.767Z,12.45
2017-08-21T03:43:01.805Z,12.37
2017-08-21T03:44:07.917Z,12.42
2017-08-21T03:45:13.931Z,12.41
2017-08-21T03:46:19.963Z,12.41
2017-08-21T03:47:26.014Z,12.44
2017-08-21T03:48:32.077Z,12.29
2017-08-21T03:49:38.135Z,12.28
2017-08-21T03:50:44.174Z,12.33
2017-08-21T03:51:50.200Z,12.24
2017-08-21T03:52:56.227Z,12.23
2017-08-21T03:54:02.257Z,12.36
2017-08-21T03:55:08.411Z,12.41
2017-08-21T03:56:14.434Z,12.45
2017-08-21T03:57:20.477Z,12.39
2017-08-21T03:58:26.532Z,12.27
2017-08-21T03:59:32.567Z,12.24
2017-08-21T04:00:38.628Z,12.18
2017-08-21T04:01:44.702Z,12.22
2017-08-21T04:02:50.750Z,12.20
2017-08-21T04:03:56.813Z,12.22
2017-08-21T04:05:02.845Z,12.28
2017-08-21T04:06:08.756Z,12.28
2017-08-21T04:07:14.806Z,12.30
2017-08-21T04:08:20.835Z,12.29
2017-08-21T04:09:26.868Z,12.22
2017-08-21T04:10:32.885Z,12.23
2017-08-21T04:11:39.006Z,12.33
2017-08-21T04:12:45.023Z,12.30
2017-08-21T04:13:51.109Z,12.33
2017-08-21T04:14:57.167Z,12.32
2017-08-21T04:16:03.210Z,12.37
2017-08-21T04:17:09.467Z,12.34
2017-08-21T04:18:15.498Z,12.31
2017-08-21T04:19:21.182Z,12.36
2017-08-21T04:20:27.229Z,12.40
2017-08-21T04:21:33.392Z,12.44
2017-08-21T04:22:39.466Z,12.45
2017-08-21T04:23:45.506Z,12.41
2017-08-21T04:24:51.526Z,12.31
2017-08-21T04:25:57.593Z,12.30
2017-08-21T04:27:03.696Z,12.23
2017-08-21T04:28:09.799Z,12.30
2017-08-21T04:29:16.109Z,12.30
2017-08-21T04:30:22.356Z,12.36
2017-08-21T04:31:28.404Z,12.37
2017-08-21T04:32:34.316Z,12.35
2017-08-21T04:33:40.642Z,12.44
2017-08-21T04:34:46.751Z,12.51
2017-08-21T04:35:52.783Z,12.61
2017-08-21T04:36:58.837Z,12.56
2017-08-21T04:38:12.277Z,12.51
2017-08-21T04:39:18.362Z,12.51
2017-08-21T04:40:24.564Z,12.45
2017-08-21T04:41:30.616Z,12.58
2017-08-21T04:42:36.669Z,12.64
2017-08-21T04:43:42.690Z,12.69
2017-08-21T04:44:48.798Z,12.64
2017-08-21T04:45:54.871Z,12.68
2017-08-21T04:47:03.074Z,12.52
2017-08-21T04:48:09.775Z,12.49
2017-08-21T04:49:16.076Z,12.47
2017-08-21T04:50:22.231Z,12.57
2017-08-21T04:51:29.984Z,12.61
2017-08-21T04:52:37.818Z,12.61
2017-08-21T04:53:43.885Z,12.59
2017-08-21T04:54:51.766Z,12.52
2017-08-21T04:55:58.595Z,12.62
2017-08-21T04:57:04.772Z,12.65
2017-08-21T04:58:10.813Z,12.77
2017-08-21T04:59:16.850Z,12.83
2017-08-21T05:00:22.548Z,12.76
2017-08-21T05:01:28.465Z,12.79
2017-08-21T05:02:34.493Z,12.80
2017-08-21T05:03:40.541Z,12.89
2017-08-21T05:04:46.570Z,12.92
2017-08-21T05:05:52.654Z,12.93
2017-08-21T05:06:58.752Z,12.87
2017-08-21T05:08:04.768Z,12.92
2017-08-21T05:09:10.809Z,13.04
2017-08-21T05:10:16.861Z,13.15
2017-08-21T05:11:22.880Z,13.05
2017-08-21T05:12:29.067Z,13.18
2017-08-21T05:13:35.091Z,13.16
2017-08-21T05:14:41.116Z,13.21
2017-08-21T05:15:47.165Z,13.19
2017-08-21T05:16:53.177Z,13.27
2017-08-21T05:17:59.233Z,13.21
2017-08-21T05:19:05.450Z,13.24
2017-08-21T05:20:11.484Z,13.29
2017-08-21T05:21:17.498Z,13.43
2017-08-21T05:22:23.516Z,13.41
2017-08-21T05:23:29.630Z,13.47
2017-08-21T05:24:35.681Z,13.62
2017-08-21T05:25:41.762Z,13.68
2017-08-21T05:26:47.915Z,13.69
2017-08-21T05:27:54.117Z,13.66
2017-08-21T05:29:00.208Z,13.53
2017-08-21T05:30:06.236Z,13.62
2017-08-21T05:31:12.289Z,13.72
2017-08-21T05:32:18.323Z,13.64
2017-08-21T05:33:24.368Z,13.63
2017-08-21T05:34:30.449Z,13.59
2017-08-21T05:35:36.507Z,13.68
2017-08-21T05:36:42.540Z,13.81
2017-08-21T05:37:48.586Z,13.90
2017-08-21T05:38:54.446Z,13.73
2017-08-21T05:40:07.214Z,13.81
2017-08-21T05:41:18.838Z,13.60
2017-08-21T05:42:24.873Z,13.70
2017-08-21T05:43:30.881Z,13.69
2017-08-21T05:44:36.955Z,13.73
2017-08-21T05:45:43.216Z,13.75
2017-08-21T05:46:49.286Z,13.78
2017-08-21T05:47:55.330Z,13.80
2017-08-21T05:49:01.416Z,13.79
2017-08-21T05:50:07.563Z,13.90
2017-08-21T05:51:13.586Z,14.02
2017-08-21T05:52:19.689Z,14.12
2017-08-21T05:53:25.727Z,14.09
2017-08-21T05:54:31.744Z,14.06
2017-08-21T05:55:37.828Z,14.06
2017-08-21T05:56:43.860Z,14.09
2017-08-21T05:57:49.898Z,14.22
2017-08-21T05:58:56.028Z,14.25
2017-08-21T06:00:01.878Z,14.23
2017-08-21T06:01:08.046Z,14.17
2017-08-21T06:02:14.291Z,14.25
2017-08-21T06:03:20.317Z,14.20
2017-08-21T06:04:29.734Z,14.26
2017-08-21T06:05:37.010Z,14.41
2017-08-21T06:06:43.398Z,14.40
2017-08-21T06:07:49.929Z,14.49
2017-08-21T06:08:56.376Z,14.53
2017-08-21T06:10:02.560Z,14.53
2017-08-21T06:11:08.865Z,14.42
2017-08-21T06:12:15.470Z,14.34
2017-08-21T06:13:21.840Z,14.47
2017-08-21T06:14:28.030Z,14.52
2017-08-21T06:15:34.209Z,14.57
2017-08-21T06:16:40.591Z,14.60
2017-08-21T06:17:46.839Z,14.55
2017-08-21T06:18:52.934Z,14.50
2017-08-21T06:19:59.344Z,14.60
2017-08-21T06:21:05.872Z,14.68
2017-08-21T06:22:15.342Z,14.69
2017-08-21T06:23:25.625Z,14.82
2017-08-21T06:24:31.899Z,14.91
2017-08-21T06:25:38.586Z,14.83
2017-08-21T06:26:45.164Z,14.82
2017-08-21T06:27:55.724Z,14.78
2017-08-21T06:29:02.204Z,14.92
2017-08-21T06:30:08.599Z,15.09
2017-08-21T06:31:15.088Z,15.08
2017-08-21T06:32:22.121Z,14.98
2017-08-21T06:33:28.558Z,15.02
2017-08-21T06:34:34.847Z,15.09
2017-08-21T06:35:41.255Z,15.18
2017-08-21T06:36:47.422Z,14.98
2017-08-21T06:37:53.831Z,15.12
2017-08-21T06:39:00.263Z,15.11
2017-08-21T06:40:06.510Z,15.10
2017-08-21T06:41:12.746Z,15.14
2017-08-21T06:42:19.313Z,15.18
2017-08-21T06:43:25.732Z,15.20
2017-08-21T06:44:32.074Z,15.36
2017-08-21T06:45:38.324Z,15.34
2017-08-21T06:46:44.666Z,15.44
2017-08-21T06:47:51.104Z,15.53
2017-08-21T06:48:57.530Z,15.57
2017-08-21T06:50:03.881Z,15.47
2017-08-21T06:51:10.203Z,15.42
2017-08-21T06:52:16.612Z,15.53
2017-08-21T06:53:23.391Z,15.57
2017-08-21T06:54:29.661Z,15.65
2017-08-21T06:55:36.016Z,15.77
2017-08-21T06:56:42.415Z,15.90
2017-08-21T06:57:48.746Z,15.92
2017-08-21T06:58:54.963Z,15.82
2017-08-21T07:00:01.355Z,15.90
2017-08-21T07:01:08.589Z,15.80
2017-08-21T07:02:16.400Z,15.68
2017-08-21T07:03:24.072Z,15.83
2017-08-21T07:04:33.103Z,15.99
2017-08-21T07:05:39.623Z,15.85
2017-08-21T07:06:46.511Z,15.82
2017-08-21T07:07:54.002Z,15.92
2017-08-21T07:09:01.733Z,15.99
2017-08-21T07:10:08.958Z,16.01
2017-08-21T07:11:15.657Z,15.96
2017-08-21T07:12:22.328Z,16.08
2017-08-21T07:13:28.805Z,16.16
2017-08-21T07:14:35.062Z,16.26
2017-08-21T07:15:41.102Z,16.08
2017-08-21T07:16:47.138Z,16.18
2017-08-21T07:17:54.504Z,16.27
2017-08-21T07:19:01.530Z,16.26
2017-08-21T07:20:08.133Z,16.42
2017-08-21T07:21:14.696Z,16.22
2017-08-21T07:22:20.774Z,16.23
2017-08-21T07:23:26.868Z,16.25
2017-08-21T07:24:33.172Z,16.28
2017-08-21T07:25:41.289Z,16.28
2017-08-21T07:26:47.927Z,16.30
2017-08-21T07:27:55.534Z,16.42
2017-08-21T07:29:02.294Z,16.35
2017-08-21T07:30:10.774Z,16.46
2017-08-21T07:31:18.876Z,16.52
2017-08-21T07:32:25.029Z,16.61
2017-08-21T07:33:31.420Z,16.76
2017-08-21T07:34:37.542Z,16.74
2017-08-21T07:35:43.663Z,16.75
2017-08-21T07:36:49.735Z,16.71
2017-08-21T07:37:56.249Z,16.86
2017-08-21T07:39:02.480Z,16.97
2017-08-21T07:40:09.038Z,17.04
2017-08-21T07:41:15.178Z,17.02
2017-08-21T07:42:21.307Z,17.09
2017-08-21T07:43:27.823Z,16.97
2017-08-21T07:44:34.255Z,17.03
2017-08-21T07:45:41.037Z,17.07
2017-08-21T07:46:47.164Z,17.20
2017-08-21T07:47:53.499Z,17.47
2017-08-21T07:49:00.116Z,17.72
2017-08-21T07:50:06.270Z,17.83
2017-08-21T07:51:12.798Z,17.82
2017-08-21T07:52:18.939Z,17.87
2017-08-21T07:53:24.995Z,18.03
2017-08-21T07:54:31.005Z,18.12
2017-08-21T07:55:37.053Z,18.07
2017-08-21T07:56:44.130Z,17.72
2017-08-21T07:58:57.293Z,17.68
2017-08-21T08:00:06.606Z,17.60
2017-08-21T08:01:14.855Z,17.32
2017-08-21T08:02:21.791Z,17.28
2017-08-21T08:03:28.985Z,16.94
2017-08-21T08:04:35.845Z,17.03
2017-08-21T08:05:44.613Z,17.04
2017-08-21T08:06:51.816Z,17.14
2017-08-21T08:07:58.615Z,17.08
2017-08-21T08:09:05.565Z,17.18
2017-08-21T08:10:14.255Z,17.05
2017-08-21T08:11:22.596Z,17.20
2017-08-21T08:12:31.000Z,17.54
2017-08-21T08:14:44.013Z,17.91
2017-08-21T08:15:52.180Z,17.82
2017-08-21T08:16:59.474Z,17.81
2017-08-21T08:18:06.098Z,17.52
2017-08-21T08:19:13.683Z,17.66
2017-08-21T08:20:20.459Z,17.49
2017-08-21T08:21:26.896Z,17.75
2017-08-21T08:22:35.002Z,17.68
2017-08-21T08:23:43.521Z,17.47
2017-08-21T08:24:50.212Z,17.53
2017-08-21T08:25:58.435Z,17.51
2017-08-21T08:27:05.000Z,17.29
2017-08-21T08:28:12.900Z,17.16
2017-08-21T08:29:20.145Z,17.41
2017-08-21T08:30:27.412Z,17.45
2017-08-21T08:31:36.927Z,17.66
2017-08-21T08:32:43.529Z,17.75
2017-08-21T08:33:52.110Z,17.81
2017-08-21T08:34:59.882Z,17.57
2017-08-21T08:36:08.623Z,17.70
2017-08-21T08:37:15.472Z,17.88
2017-08-21T08:38:23.335Z,17.92
2017-08-21T08:39:30.154Z,17.82
2017-08-21T08:40:38.542Z,18.00
2017-08-21T08:41:46.328Z,18.20
2017-08-21T08:42:55.215Z,17.85
2017-08-21T08:44:02.334Z,17.69
2017-08-21T08:45:10.663Z,17.76
2017-08-21T08:46:18.769Z,18.01
2017-08-21T08:47:25.249Z,18.11
2017-08-21T08:48:32.098Z,18.26
2017-08-21T08:49:39.290Z,18.37
2017-08-21T08:50:49.918Z,18.23
2017-08-21T08:51:56.739Z,18.54
2017-08-21T08:53:03.475Z,18.66
2017-08-21T08:54:11.396Z,18.85
2017-08-21T08:55:18.189Z,18.45
2017-08-21T08:56:25.251Z,18.73
2017-08-21T08:57:32.169Z,18.88
2017-08-21T08:58:39.782Z,18.56
2017-08-21T08:59:48.187Z,18.76
2017-08-21T09:00:55.635Z,18.71
2017-08-21T09:02:03.583Z,18.44
2017-08-21T09:03:11.797Z,18.18
2017-08-21T09:04:19.298Z,17.94
2017-08-21T09:05:26.140Z,18.15
2017-08-21T09:06:34.194Z,17.89
2017-08-21T09:07:41.466Z,18.06
2017-08-21T09:08:49.321Z,18.24
2017-08-21T09:09:56.521Z,18.40
2017-08-21T09:11:03.294Z,18.56
2017-08-21T09:12:11.115Z,18.35
2017-08-21T09:13:18.885Z,18.58
2017-08-21T09:14:26.868Z,18.92
2017-08-21T09:15:33.605Z,18.79
2017-08-21T09:16:40.945Z,18.65
2017-08-21T09:17:49.482Z,18.75
2017-08-21T09:18:56.884Z,18.76
2017-08-21T09:20:05.330Z,18.95
2017-08-21T09:21:12.785Z,18.91
2017-08-21T09:22:20.048Z,19.02
2017-08-21T09:23:27.508Z,18.55
2017-08-21T09:24:36.126Z,18.28
2017-08-21T09:25:43.086Z,18.89
2017-08-21T09:26:50.528Z,19.18
2017-08-21T09:27:56.645Z,19.06
2017-08-21T09:29:02.682Z,18.85
2017-08-21T09:30:10.916Z,18.90
2017-08-21T09:31:19.659Z,18.77
2017-08-21T09:32:29.001Z,18.73
2017-08-21T09:33:37.512Z,18.77
2017-08-21T09:34:45.350Z,18.77
2017-08-21T09:35:54.513Z,18.44
2017-08-21T09:37:03.410Z,18.66
2017-08-21T09:38:12.566Z,18.64
2017-08-21T09:39:21.372Z,18.66
2017-08-21T09:40:30.283Z,18.43
2017-08-21T09:41:38.647Z,18.33
2017-08-21T09:42:48.402Z,18.12
2017-08-21T09:43:58.076Z,18.24
2017-08-21T09:45:05.927Z,18.27
2017-08-21T09:46:15.919Z,18.29
2017-08-21T09:47:24.159Z,18.19
2017-08-21T09:48:33.082Z,18.13
2017-08-21T09:49:41.566Z,18.37
2017-08-21T09:50:50.703Z,18.85
2017-08-21T09:51:58.353Z,19.18
2017-08-21T09:53:08.880Z,19.17
2017-08-21T09:54:17.602Z,18.79
2017-08-21T09:55:25.656Z,18.79
2017-08-21T09:56:32.295Z,18.50
2017-08-21T09:57:38.345Z,18.53
2017-08-21T09:58:44.423Z,18.45
2017-08-21T09:59:50.544Z,18.35
2017-08-21T10:00:56.578Z,18.45
2017-08-21T10:02:02.666Z,18.34
2017-08-21T10:03:08.754Z,18.52
2017-08-21T10:04:14.792Z,18.86
2017-08-21T10:05:20.858Z,18.82
2017-08-21T10:06:26.904Z,19.10
2017-08-21T10:07:32.935Z,19.37
2017-08-21T10:08:39.048Z,19.39
2017-08-21T10:09:44.893Z,19.61
2017-08-21T10:10:50.944Z,19.68
2017-08-21T10:11:57.793Z,19.62
2017-08-21T10:13:03.867Z,19.60
2017-08-21T10:14:09.912Z,19.58
2017-08-21T10:15:16.083Z,19.60
2017-08-21T10:16:22.162Z,19.58
2017-08-21T10:17:28.178Z,19.62
2017-08-21T10:18:34.226Z,19.41
2017-08-21T10:19:40.267Z,18.82
2017-08-21T10:20:46.370Z,18.77
2017-08-21T10:21:52.436Z,18.47
2017-08-21T10:22:58.503Z,18.73
2017-08-21T10:24:04.561Z,19.22
2017-08-21T10:25:10.614Z,19.72
2017-08-21T10:26:16.737Z,19.94
2017-08-21T10:27:22.796Z,19.77
2017-08-21T10:28:28.910Z,19.67
2017-08-21T10:29:34.969Z,19.51
2017-08-21T10:30:41.033Z,19.35
2017-08-21T10:31:47.192Z,19.33
2017-08-21T10:32:53.244Z,19.36
2017-08-21T10:33:59.272Z,19.44
2017-08-21T10:35:05.351Z,19.61
2017-08-21T10:36:11.366Z,19.95
2017-08-21T10:37:17.435Z,20.20
2017-08-21T10:38:23.481Z,20.10
2017-08-21T10:39:29.573Z,20.40
2017-08-21T10:40:35.661Z,20.66
2017-08-21T10:41:41.742Z,20.65
2017-08-21T10:42:47.831Z,20.48
2017-08-21T10:43:53.882Z,20.42
2017-08-21T10:44:59.941Z,20.11
2017-08-21T10:46:06.046Z,20.11
2017-08-21T10:47:12.118Z,20.32
2017-08-21T10:48:18.059Z,20.32
2017-08-21T10:49:24.133Z,20.28
2017-08-21T10:50:29.995Z,20.22
2017-08-21T10:51:35.816Z,20.17
2017-08-21T10:52:41.910Z,20.36
2017-08-21T10:53:48.006Z,20.41
2017-08-21T10:54:54.101Z,20.27
2017-08-21T10:56:00.195Z,20.25
2017-08-21T10:57:06.094Z,20.17
2017-08-21T10:58:13.468Z,20.46
2017-08-21T10:59:21.334Z,20.73
2017-08-21T11:00:28.457Z,20.95
2017-08-21T11:01:35.629Z,20.58
2017-08-21T11:02:42.884Z,20.79
2017-08-21T11:03:50.059Z,20.63
2017-08-21T11:04:57.261Z,20.65
2017-08-21T11:06:03.910Z,20.54
2017-08-21T11:07:10.948Z,20.55
2017-08-21T11:08:18.134Z,20.51
2017-08-21T11:09:24.696Z,20.20
2017-08-21T11:10:31.269Z,20.09
2017-08-21T11:11:38.199Z,19.93
2017-08-21T11:12:46.478Z,19.86
2017-08-21T11:13:52.904Z,19.47
2017-08-21T11:15:01.077Z,19.01
2017-08-21T11:16:10.469Z,18.81
2017-08-21T11:17:18.054Z,18.72
2017-08-21T11:18:24.783Z,18.76
2017-08-21T11:19:30.965Z,18.65
2017-08-21T11:20:37.535Z,18.65
2017-08-21T11:21:43.401Z,18.72
2017-08-21T11:22:49.441Z,18.54
2017-08-21T11:23:55.359Z,18.74
2017-08-21T11:25:01.422Z,18.81
2017-08-21T11:26:07.514Z,19.06
2017-08-21T11:27:13.637Z,19.14
2017-08-21T11:28:19.705Z,19.36
2017-08-21T11:29:25.775Z,19.43
2017-08-21T11:30:31.805Z,19.50
2017-08-21T11:31:37.837Z,19.93
2017-08-21T11:32:43.971Z,20.29
2017-08-21T11:33:52.418Z,20.44
2017-08-21T11:35:04.093Z,20.46
2017-08-21T11:36:12.780Z,20.56
2017-08-21T11:37:21.779Z,21.15
2017-08-21T11:38:30.775Z,21.28
2017-08-21T11:39:37.754Z,21.37
2017-08-21T11:40:45.412Z,21.27
2017-08-21T11:41:54.000Z,21.07
2017-08-21T11:43:02.993Z,20.88
2017-08-21T11:44:12.740Z,20.65
2017-08-21T11:45:22.102Z,20.52
2017-08-21T11:46:30.058Z,19.87
2017-08-21T11:47:38.141Z,19.73
2017-08-21T11:48:46.542Z,19.56
2017-08-21T11:49:53.437Z,19.66
2017-08-21T11:51:00.568Z,19.64
2017-08-21T11:52:09.313Z,19.53
2017-08-21T11:53:16.837Z,19.36
2017-08-21T11:54:23.682Z,19.08
2017-08-21T11:55:31.078Z,19.01
2017-08-21T11:56:38.980Z,19.06
2017-08-21T11:57:46.955Z,18.96
2017-08-21T11:58:55.588Z,18.99
2017-08-21T12:00:05.318Z,18.95
2017-08-21T12:01:14.126Z,19.19
2017-08-21T12:02:20.378Z,19.27
2017-08-21T12:03:29.201Z,19.52
2017-08-21T12:04:38.720Z,19.70
2017-08-21T12:05:46.199Z,19.78
2017-08-21T12:06:54.725Z,19.83
2017-08-21T12:08:02.905Z,19.66
2017-08-21T12:09:12.579Z,19.62
2017-08-21T12:10:19.799Z,19.87
2017-08-21T12:11:30.426Z,20.27
2017-08-21T12:12:38.145Z,20.56
2017-08-21T12:13:46.054Z,20.71
2017-08-21T12:14:54.405Z,20.60
2017-08-21T12:16:00.469Z,20.46
2017-08-21T12:17:09.559Z,20.49
2017-08-21T12:18:17.651Z,20.79
2017-08-21T12:19:25.159Z,20.70
2017-08-21T12:20:32.566Z,20.78
2017-08-21T12:21:38.621Z,20.50
2017-08-21T12:22:46.509Z,20.80
2017-08-21T12:23:52.817Z,21.00
2017-08-21T12:24:58.852Z,20.21
2017-08-21T12:26:05.027Z,20.70
2017-08-21T12:27:13.125Z,21.10
2017-08-21T12:28:20.015Z,21.33
2017-08-21T12:29:26.148Z,21.52
2017-08-21T12:30:33.393Z,20.68
2017-08-21T12:31:41.462Z,20.84
2017-08-21T12:32:47.878Z,20.79
2017-08-21T12:33:55.536Z,21.00
2017-08-21T12:35:02.471Z,20.74
2017-08-21T12:36:08.613Z,20.25
2017-08-21T12:37:16.302Z,20.42
2017-08-21T12:38:26.102Z,20.57
2017-08-21T12:39:35.171Z,20.27
2017-08-21T12:40:42.222Z,20.42
2017-08-21T12:41:50.047Z,20.17
2017-08-21T12:42:58.746Z,20.44
2017-08-21T12:44:04.798Z,20.18
2017-08-21T12:45:13.446Z,19.86
2017-08-21T12:46:20.821Z,19.96
2017-08-21T12:47:28.812Z,20.12
2017-08-21T12:48:37.030Z,19.92
2017-08-21T12:49:44.977Z,20.13
2017-08-21T12:50:53.157Z,20.14
2017-08-21T12:52:05.215Z,20.10
2017-08-21T12:53:14.626Z,20.25
2017-08-21T12:54:23.447Z,20.29
2017-08-21T12:55:33.099Z,20.20
2017-08-21T12:56:41.762Z,19.99
2017-08-21T12:57:49.857Z,20.21
2017-08-21T12:58:59.317Z,20.47
2017-08-21T13:00:07.564Z,20.30
2017-08-21T13:01:17.235Z,20.34
2017-08-21T13:02:27.443Z,20.26
2017-08-21T13:03:37.154Z,20.00
2017-08-21T13:04:45.469Z,20.47
2017-08-21T13:05:54.293Z,20.77
2017-08-21T13:07:02.722Z,21.09
2017-08-21T13:08:11.486Z,21.19
2017-08-21T13:09:20.178Z,21.31
2017-08-21T13:10:28.680Z,21.56
2017-08-21T13:11:35.433Z,21.43
2017-08-21T13:12:41.509Z,21.68
2017-08-21T13:13:47.553Z,21.50
2017-08-21T13:14:54.108Z,21.60
2017-08-21T13:16:03.374Z,21.74
2017-08-21T13:17:11.661Z,21.81
2017-08-21T13:18:19.598Z,22.02
2017-08-21T13:19:26.756Z,21.84
2017-08-21T13:20:35.270Z,21.84
2017-08-21T13:21:42.668Z,21.61
2017-08-21T13:22:50.805Z,21.56
2017-08-21T13:23:58.452Z,21.50
2017-08-21T13:25:07.081Z,21.76
2017-08-21T13:26:13.801Z,21.55
2017-08-21T13:27:21.579Z,21.50
2017-08-21T13:28:28.404Z,21.63
2017-08-21T13:29:37.692Z,21.32
2017-08-21T13:30:45.547Z,21.57
2017-08-21T13:31:54.926Z,21.55
2017-08-21T13:33:01.812Z,21.58
2017-08-21T13:34:10.665Z,21.41
2017-08-21T13:35:19.840Z,21.04
2017-08-21T13:36:26.582Z,20.85
2017-08-21T13:37:32.742Z,20.50
2017-08-21T13:38:41.010Z,20.36
2017-08-21T13:39:49.448Z,19.88
2017-08-21T13:40:57.066Z,19.97
2017-08-21T13:42:03.110Z,19.99
2017-08-21T13:43:09.301Z,19.91
2017-08-21T13:44:15.340Z,20.03
2017-08-21T13:45:21.427Z,19.83
2017-08-21T13:46:27.488Z,19.76
2017-08-21T13:47:33.585Z,19.84
2017-08-21T13:48:39.682Z,19.74
2017-08-21T13:49:45.342Z,19.95
2017-08-21T13:50:51.060Z,20.26
2017-08-21T13:51:56.901Z,20.21
2017-08-21T13:53:02.737Z,20.39
2017-08-21T13:54:08.907Z,20.80
2017-08-21T13:55:14.928Z,20.73
2017-08-21T13:56:20.951Z,20.96
2017-08-21T13:57:26.991Z,21.01
2017-08-21T13:58:33.030Z,21.09
2017-08-21T13:59:39.122Z,21.07
2017-08-21T14:00:45.151Z,21.13
2017-08-21T14:01:51.185Z,20.59
2017-08-21T14:02:57.010Z,20.55
2017-08-21T14:04:03.078Z,20.53
2017-08-21T14:05:09.247Z,20.72
2017-08-21T14:06:15.273Z,20.55
2017-08-21T14:07:21.313Z,20.64
2017-08-21T14:08:27.384Z,21.06
2017-08-21T14:09:33.409Z,20.99
2017-08-21T14:10:39.490Z,21.38
2017-08-21T14:11:45.540Z,21.35
2017-08-21T14:12:51.589Z,21.78
2017-08-21T14:13:57.675Z,22.07
2017-08-21T14:15:04.132Z,22.03
2017-08-21T14:16:10.244Z,22.00
2017-08-21T14:17:16.552Z,21.72
2017-08-21T14:18:22.598Z,21.47
2017-08-21T14:19:29.520Z,21.90
2017-08-21T14:20:35.643Z,22.24
2017-08-21T14:21:41.834Z,22.44